DW8463 Weather Reports


Display with metric or nautical units.
time (UTC)temp
F
wind
direction
speed
MPH
gust
MPH
rain 1hr
in
rain 24hr
in
rain mn
in
humidity
%
barometer
mb
20210921065305 55 305 0.0 9.0 0.00 0.26 0.00 87 1012.8
20210921064804 55 295 1.0 13.0 0.00 0.26 0.00 87 1012.8
20210921064304 55 309 1.0 10.0 0.00 0.26 0.00 87 1012.6
20210921063804 55 315 0.0 10.0 0.00 0.26 0.00 87 1012.5
20210921063305 55 306 0.0 8.0 0.00 0.26 0.00 87 1012.5
20210921062804 55 312 5.0 12.0 0.00 0.26 0.00 87 1012.3
20210921062306 56 304 3.0 10.0 0.00 0.26 0.00 87 1012.2
20210921061805 56 310 5.0 12.0 0.00 0.26 0.00 87 1012.3
20210921061304 56 301 1.0 10.0 0.00 0.26 0.00 87 1012.1
20210921060804 56 313 6.0 13.0 0.00 0.26 0.00 87 1012.0
20210921060304 56 315 2.0 13.0 0.00 0.26 0.00 87 1011.9
20210921055803 56 302 2.0 12.0 0.00 0.26 0.00 87 1011.8
20210921055305 56 319 0.0 8.0 0.00 0.26 0.00 87 1011.7
20210921054804 56 310 5.0 12.0 0.00 0.26 0.00 87 1011.6
20210921054303 56 309 7.0 12.0 0.00 0.26 0.00 87 1011.5
20210921053804 56 327 6.0 13.0 0.00 0.26 0.00 87 1011.5
20210921053304 56 319 5.0 14.0 0.00 0.26 0.00 87 1011.4
20210921052804 56 321 5.0 14.0 0.00 0.26 0.00 87 1011.4
20210921052305 56 296 8.0 17.0 0.00 0.26 0.00 87 1011.4
20210921051804 56 309 8.0 15.0 0.00 0.26 0.00 87 1011.3
20210921051304 57 314 9.0 16.0 0.00 0.26 0.00 87 1011.3
20210921050822 57 305 6.0 12.0 0.01 0.26 0.00 87 1011.1
20210921050304 57 314 3.0 13.0 0.01 0.26 0.00 87 1011.0
20210921045804 57 308 5.0 14.0 0.01 0.26 0.26 87 1010.8
20210921045305 57 319 5.0 16.0 0.03 0.26 0.26 87 1010.8
20210921044804 58 334 7.0 20.0 0.03 0.26 0.26 87 1010.6
20210921044305 58 322 11.0 23.0 0.03 0.26 0.26 87 1010.4
20210921043804 59 317 3.0 12.0 0.04 0.26 0.26 87 1010.2
20210921043304 59 319 0.0 9.0 0.04 0.26 0.26 87 1010.1
20210921042804 59 298 0.0 7.0 0.04 0.26 0.26 87 1010.1
20210921042305 59 279 0.0 0.0 0.04 0.26 0.26 87 1010.0
20210921041804 59 299 0.0 5.0 0.04 0.26 0.26 87 1009.9
20210921041304 59 299 4.0 8.0 0.04 0.26 0.26 87 1009.9
20210921040804 59 297 0.0 3.0 0.03 0.25 0.25 87 1009.8
20210921040304 59 294 2.0 7.0 0.03 0.25 0.25 87 1009.8
20210921035804 59 312 2.0 12.0 0.03 0.25 0.25 82 1009.7
20210921035305 59 328 0.0 8.0 0.01 0.23 0.23 82 1009.5
20210921034804 59 307 1.0 8.0 0.01 0.23 0.23 82 1009.4
20210921034304 60 328 1.0 8.0 0.01 0.23 0.23 82 1009.5
20210921033804 60 294 1.0 8.0 0.00 0.22 0.22 82 1009.3
20210921033305 60 307 3.0 10.0 0.00 0.22 0.22 82 1009.3
20210921032805 60 287 1.0 9.0 0.00 0.22 0.22 82 1009.3
20210921032305 61 277 1.0 3.0 0.00 0.22 0.22 82 1009.2
20210921031804 61 267 0.0 5.0 0.00 0.22 0.22 82 1009.1
20210921031304 61 285 2.0 10.0 0.00 0.22 0.22 82 1009.2
20210921030804 61 288 0.0 3.0 0.00 0.22 0.22 82 1009.1
20210921030304 61 281 0.0 6.0 0.00 0.22 0.22 82 1009.1
20210921025804 61 259 0.0 0.0 0.00 0.22 0.22 82 1008.9
20210921025305 61 287 0.0 0.0 0.00 0.22 0.22 82 1008.8
20210921024804 61 257 0.0 0.0 0.00 0.22 0.22 82 1008.8
20210921024304 61 299 0.0 0.0 0.00 0.22 0.22 82 1008.7
20210921023804 61 294 0.0 3.0 0.00 0.22 0.22 82 1008.5
20210921023304 61 298 1.0 9.0 0.00 0.22 0.22 82 1008.6
20210921022804 61 304 0.0 0.0 0.00 0.22 0.22 82 1008.5
20210921022306 61 303 0.0 0.0 0.00 0.22 0.22 82 1008.6
20210921021804 61 320 0.0 0.0 0.00 0.22 0.22 82 1008.4
20210921021304 61 304 0.0 0.0 0.00 0.22 0.22 82 1008.5
20210921020804 61 319 0.0 0.0 0.00 0.22 0.22 82 1008.4
20210921020304 61 294 0.0 0.0 0.00 0.22 0.22 82 1008.4
20210921015804 61 294 0.0 7.0 0.00 0.22 0.22 82 1008.3
20210921015306 60 306 0.0 5.0 0.00 0.22 0.22 82 1008.3
20210921014804 60 324 1.0 6.0 0.00 0.22 0.22 82 1008.2
20210921014305 60 325 0.0 1.0 0.00 0.22 0.22 82 1008.2
20210921013804 60 277 2.0 9.0 0.00 0.22 0.22 82 1008.0
20210921013304 60 297 0.0 0.0 0.00 0.22 0.22 82 1008.0
20210921012804 61 291 0.0 0.0 0.00 0.22 0.22 82 1007.9
20210921012306 61 325 1.0 10.0 0.00 0.22 0.22 82 1007.8
20210921011804 61 304 0.0 8.0 0.00 0.22 0.22 82 1007.6
20210921011304 61 303 1.0 8.0 0.00 0.22 0.22 82 1007.5
20210921010804 61 284 0.0 10.0 0.00 0.22 0.22 82 1007.4
20210921010304 61 310 2.0 12.0 0.00 0.22 0.22 82 1007.1
20210921005804 61 326 3.0 15.0 0.00 0.22 0.22 87 1006.8
20210921005306 61 334 4.0 14.0 0.00 0.22 0.22 87 1006.7
20210921004804 61 301 3.0 12.0 0.00 0.22 0.22 87 1006.7
20210921004304 60 298 5.0 12.0 0.00 0.22 0.22 87 1006.6
20210921003804 60 307 4.0 18.0 0.00 0.22 0.22 87 1006.4
20210921003304 60 323 6.0 20.0 0.00 0.22 0.22 87 1006.2
20210921002804 60 292 7.0 16.0 0.00 0.22 0.22 87 1006.1
20210921002305 60 313 7.0 15.0 0.00 0.22 0.22 87 1005.8
20210921001804 60 313 9.0 21.0 0.00 0.22 0.22 87 1005.7
20210921001304 60 312 8.0 18.0 0.00 0.22 0.22 87 1005.6
20210921000804 60 320 9.0 21.0 0.00 0.22 0.22 87 1005.6
20210921000304 61 312 11.0 22.0 0.00 0.22 0.22 87 1005.4
20210920235804 61 261 6.0 22.0 0.00 0.22 0.22 87 1005.3
20210920235306 61 295 8.0 21.0 0.00 0.22 0.22 87 1005.1
20210920234804 61 306 7.0 20.0 0.00 0.22 0.22 87 1004.9
20210920234304 61 298 5.0 13.0 0.00 0.22 0.22 87 1004.7
20210920233804 61 291 7.0 18.0 0.00 0.22 0.22 87 1004.5
20210920233304 61 307 2.0 15.0 0.00 0.22 0.22 87 1004.4
20210920232805 61 295 5.0 17.0 0.00 0.22 0.22 87 1004.3
20210920232306 62 295 9.0 18.0 0.00 0.22 0.22 87 1004.1
20210920231804 62 289 3.0 13.0 0.00 0.22 0.22 87 1003.9
20210920231304 62 271 4.0 16.0 0.00 0.22 0.22 87 1003.4
20210920230805 62 297 3.0 10.0 0.00 0.22 0.22 87 1002.8
20210920230304 61 320 5.0 12.0 0.00 0.22 0.22 87 1001.9
20210920225804 61 311 4.0 15.0 0.00 0.22 0.22 87 1002.1
20210920225305 62 290 7.0 16.0 0.01 0.22 0.22 87 1002.3
20210920224804 62 312 1.0 15.0 0.01 0.22 0.22 87 1002.4
20210920224304 62 264 3.0 13.0 0.02 0.22 0.22 87 1002.1
20210920223804 63 264 7.0 13.0 0.02 0.22 0.22 87 1002.0
20210920223304 63 283 4.0 9.0 0.02 0.22 0.22 87 1001.7
20210920222803 63 311 3.0 9.0 0.02 0.22 0.22 87 1001.1
20210920222306 63 323 9.0 18.0 0.06 0.22 0.22 87 1000.7
20210920221804 63 300 6.0 16.0 0.16 0.22 0.22 87 1000.6
20210920221304 63 285 3.0 12.0 0.19 0.22 0.22 87 1001.2
20210920220804 63 290 2.0 10.0 0.21 0.22 0.22 87 1000.8
20210920220304 63 292 2.0 10.0 0.21 0.22 0.22 83 1000.6
20210920215804 63 299 1.0 10.0 0.21 0.22 0.22 65 1000.8
20210920215306 63 310 1.0 12.0 0.20 0.21 0.21 65 1001.3
20210920214804 64 321 7.0 13.0 0.20 0.21 0.21 65 1001.1
20210920214304 64 323 5.0 14.0 0.19 0.20 0.20 65 1001.7
20210920213805 64 305 3.0 14.0 0.19 0.20 0.20 65 1001.7
20210920213304 65 282 7.0 15.0 0.19 0.20 0.20 65 1001.6
20210920212804 66 297 4.0 14.0 0.19 0.20 0.20 65 1001.1
20210920212305 67 268 7.0 16.0 0.15 0.16 0.16 65 1001.0
20210920211805 69 291 5.0 22.0 0.05 0.06 0.06 65 1000.6
20210920211304 71 277 11.0 24.0 0.02 0.03 0.03 65 1000.2
20210920210804 73 295 9.0 23.0 0.00 0.01 0.01 65 1000.0
20210920210304 75 230 2.0 12.0 0.00 0.01 0.01 65 999.9
20210920205804 77 271 4.0 13.0 0.00 0.01 0.01 61 999.9
20210920205307 77 212 2.0 10.0 0.00 0.01 0.01 61 999.6
20210920204804 77 168 2.0 12.0 0.00 0.01 0.01 61 999.0
20210920204304 77 176 2.0 12.0 0.00 0.01 0.01 61 999.1
20210920203804 77 184 0.0 2.0 0.00 0.01 0.01 61 999.2
20210920203304 77 171 1.0 7.0 0.00 0.01 0.01 61 999.3
20210920202804 77 155 0.0 10.0 0.00 0.01 0.01 61 999.5
20210920202305 78 172 1.0 12.0 0.00 0.01 0.01 61 999.7
20210920201805 78 189 0.0 12.0 0.00 0.01 0.01 61 999.8
20210920201304 78 164 5.0 15.0 0.00 0.01 0.01 61 999.8
20210920200804 78 184 2.0 12.0 0.00 0.01 0.01 61 999.8
20210920200304 78 150 3.0 12.0 0.00 0.01 0.01 61 999.7
20210920195804 78 166 6.0 18.0 0.00 0.01 0.01 61 999.9
20210920195306 78 168 5.0 21.0 0.00 0.01 0.01 61 1000.0
20210920194804 78 161 5.0 16.0 0.00 0.01 0.01 61 1000.2
20210920194304 78 161 3.0 15.0 0.00 0.01 0.01 61 1000.5
20210920193804 78 174 2.0 12.0 0.00 0.01 0.01 61 1000.7
20210920193304 78 186 4.0 16.0 0.00 0.01 0.01 61 1000.7
20210920192804 78 165 2.0 12.0 0.00 0.01 0.01 61 1000.7
20210920192306 78 179 3.0 12.0 0.00 0.01 0.01 61 1000.8
20210920191804 78 181 7.0 20.0 0.00 0.01 0.01 61 1000.9
20210920191304 78 189 1.0 16.0 0.00 0.01 0.01 61 1001.0
20210920190804 78 177 3.0 17.0 0.00 0.01 0.01 61 1001.0
20210920190304 78 166 5.0 20.0 0.00 0.01 0.01 61 1001.1
20210920185804 77 192 2.0 9.0 0.00 0.01 0.01 69 1001.3
20210920185305 77 166 5.0 17.0 0.00 0.01 0.01 69 1001.4
20210920184804 77 153 7.0 16.0 0.00 0.01 0.01 69 1001.6
20210920184304 77 169 7.0 18.0 0.00 0.01 0.01 69 1001.5
20210920183804 77 162 1.0 17.0 0.00 0.01 0.01 69 1001.5
20210920183304 76 158 3.0 14.0 0.00 0.01 0.01 69 1001.6
20210920182804 76 163 3.0 15.0 0.00 0.01 0.01 69 1001.7
20210920182305 76 167 6.0 16.0 0.00 0.01 0.01 69 1001.8
20210920181804 75 167 5.0 16.0 0.00 0.01 0.01 69 1001.9
20210920181304 76 171 5.0 12.0 0.01 0.01 0.01 69 1001.9
20210920180804 75 174 2.0 14.0 0.01 0.01 0.01 69 1001.9
20210920180304 75 148 3.0 10.0 0.01 0.01 0.01 69 1002.0
20210920175803 74 168 3.0 12.0 0.01 0.01 0.01 73 1002.0
20210920175305 73 175 3.0 13.0 0.01 0.01 0.01 73 1002.0
20210920174804 73 170 1.0 9.0 0.01 0.01 0.01 73 1002.1
20210920174304 73 149 0.0 3.0 0.01 0.01 0.01 73 1002.1
20210920173804 73 165 0.0 3.0 0.01 0.01 0.01 73 1002.3
20210920173304 72 170 0.0 6.0 0.01 0.01 0.01 73 1002.4
20210920172804 72 186 1.0 6.0 0.01 0.01 0.01 73 1002.4
20210920172305 72 164 0.0 3.0 0.01 0.01 0.01 73 1002.5
20210920171804 73 182 2.0 10.0 0.01 0.01 0.01 73 1002.4
20210920171304 74 189 0.0 7.0 0.00 0.00 0.00 73 1002.6
20210920170804 74 155 3.0 16.0 0.00 0.00 0.00 73 1002.8
20210920170304 74 153 3.0 13.0 0.00 0.00 0.00 73 1002.8
20210920165804 74 158 0.0 3.0 0.00 0.00 0.00 73 1003.0
20210920165305 74 159 1.0 10.0 0.00 0.00 0.00 73 1003.0
20210920164803 74 149 2.0 10.0 0.00 0.00 0.00 73 1003.1
20210920164304 74 194 1.0 7.0 0.00 0.00 0.00 73 1002.9
20210920163804 75 173 3.0 13.0 0.00 0.00 0.00 73 1003.1
20210920163304 75 162 4.0 12.0 0.00 0.00 0.00 73 1003.2
20210920162804 75 187 2.0 12.0 0.00 0.00 0.00 73 1003.2
20210920162305 75 208 1.0 9.0 0.00 0.00 0.00 73 1003.4
20210920161804 75 148 3.0 12.0 0.00 0.00 0.00 73 1003.4
20210920161303 74 184 2.0 8.0 0.00 0.00 0.00 73 1003.5
20210920160804 74 170 1.0 8.0 0.00 0.00 0.00 73 1003.6
20210920160305 75 175 2.0 9.0 0.00 0.00 0.00 73 1003.6
20210920155804 75 158 3.0 13.0 0.00 0.00 0.00 78 1003.6
20210920155305 74 166 4.0 12.0 0.00 0.00 0.00 78 1003.8
20210920154804 74 162 1.0 12.0 0.00 0.00 0.00 78 1004.0
20210920154304 74 142 2.0 8.0 0.00 0.00 0.00 78 1004.2
20210920153804 74 178 2.0 7.0 0.00 0.00 0.00 78 1004.3
20210920153304 74 160 2.0 9.0 0.00 0.00 0.00 78 1004.3
20210920152804 73 143 4.0 12.0 0.00 0.00 0.00 78 1004.3
20210920152306 73 173 3.0 10.0 0.00 0.00 0.00 78 1004.4
20210920151804 72 124 1.0 12.0 0.00 0.00 0.00 78 1004.3
20210920151304 72 193 0.0 5.0 0.00 0.00 0.00 78 1004.3
20210920150804 72 168 1.0 7.0 0.00 0.00 0.00 78 1004.2
20210920150304 71 179 1.0 8.0 0.00 0.00 0.00 78 1004.2
20210920145804 71 178 1.0 6.0 0.00 0.00 0.00 77 1004.2
20210920145305 71 142 2.0 10.0 0.00 0.00 0.00 77 1004.2
20210920144804 71 176 1.0 5.0 0.00 0.00 0.00 77 1004.2
20210920144304 71 167 2.0 9.0 0.00 0.00 0.00 77 1004.2
20210920143804 71 165 1.0 6.0 0.00 0.00 0.00 77 1004.2
20210920143304 71 178 1.0 9.0 0.00 0.00 0.00 77 1004.1
20210920142804 71 180 3.0 15.0 0.00 0.00 0.00 77 1003.9
20210920142305 71 169 1.0 13.0 0.00 0.00 0.00 77 1003.9
20210920141804 71 183 3.0 10.0 0.00 0.00 0.00 77 1004.0
20210920141304 71 154 2.0 10.0 0.00 0.00 0.00 77 1004.0
20210920140804 71 192 2.0 8.0 0.00 0.00 0.00 77 1004.2
20210920140304 70 161 1.0 10.0 0.00 0.00 0.00 79 1004.2
20210920135805 70 170 2.0 10.0 0.00 0.00 0.00 88 1004.4
20210920135306 70 141 1.0 9.0 0.00 0.00 0.00 88 1004.6
20210920134804 70 194 3.0 10.0 0.00 0.00 0.00 88 1004.8
20210920134305 70 185 0.0 8.0 0.00 0.00 0.00 88 1004.8
20210920133804 70 174 0.0 5.0 0.00 0.00 0.00 88 1004.8
20210920133304 70 187 2.0 9.0 0.00 0.00 0.00 88 1004.9
20210920132804 70 175 2.0 8.0 0.00 0.00 0.00 88 1005.0
20210920132305 70 176 0.0 8.0 0.00 0.00 0.00 88 1004.8
20210920131804 70 205 1.0 13.0 0.00 0.00 0.00 88 1004.8
20210920131303 69 172 2.0 13.0 0.00 0.00 0.00 88 1004.8
20210920130804 69 199 1.0 9.0 0.00 0.00 0.00 88 1004.9
20210920130304 69 178 2.0 8.0 0.00 0.00 0.00 88 1004.9
20210920125804 69 190 1.0 8.0 0.00 0.00 0.00 88 1005.0
20210920125305 69 199 1.0 7.0 0.00 0.00 0.00 88 1005.1
20210920124804 69 152 2.0 9.0 0.00 0.00 0.00 88 1005.1
20210920124304 68 173 1.0 8.0 0.00 0.00 0.00 88 1005.2
20210920123804 68 206 0.0 6.0 0.00 0.00 0.00 88 1005.2
20210920123304 68 192 1.0 7.0 0.00 0.00 0.00 88 1005.0
20210920122804 68 199 1.0 5.0 0.00 0.00 0.00 88 1005.0
20210920122306 68 161 0.0 5.0 0.00 0.00 0.00 88 1005.1
20210920121804 68 170 0.0 5.0 0.00 0.00 0.00 88 1005.1
20210920121304 68 175 0.0 3.0 0.00 0.00 0.00 88 1005.2
20210920120804 68 200 1.0 6.0 0.00 0.00 0.00 88 1005.2
20210920120304 68 181 1.0 8.0 0.00 0.00 0.00 88 1005.3
20210920115804 68 186 0.0 5.0 0.00 0.00 0.00 82 1005.4
20210920115306 68 180 0.0 6.0 0.00 0.00 0.00 82 1005.3
20210920114804 68 171 0.0 3.0 0.00 0.00 0.00 82 1005.2
20210920114304 68 179 1.0 7.0 0.00 0.00 0.00 82 1005.3
20210920113804 68 176 1.0 7.0 0.00 0.00 0.00 82 1005.3
20210920113304 68 219 0.0 0.0 0.00 0.00 0.00 82 1005.4
20210920112804 68 200 0.0 3.0 0.00 0.00 0.00 82 1005.3
20210920112305 68 197 0.0 5.0 0.00 0.00 0.00 82 1005.3
20210920111804 68 162 0.0 5.0 0.00 0.00 0.00 82 1005.1
20210920111304 68 148 0.0 1.0 0.00 0.00 0.00 82 1005.2
20210920110804 68 202 0.0 0.0 0.00 0.00 0.00 82 1005.2
20210920110304 68 150 0.0 3.0 0.00 0.00 0.00 82 1005.2
20210920105804 68 200 0.0 0.0 0.00 0.00 0.00 82 1005.2
20210920105305 68 194 0.0 2.0 0.00 0.00 0.00 82 1005.0
20210920104804 69 209 0.0 0.0 0.00 0.00 0.00 82 1004.9
20210920104304 69 179 0.0 2.0 0.00 0.00 0.00 82 1004.8
20210920103804 69 200 0.0 0.0 0.00 0.00 0.00 82 1004.6
20210920103304 69 202 0.0 0.0 0.00 0.00 0.00 82 1004.6
20210920102804 69 175 0.0 0.0 0.00 0.00 0.00 82 1004.4
20210920102305 70 171 0.0 7.0 0.00 0.00 0.00 82 1004.4
20210920101804 70 167 1.0 6.0 0.00 0.00 0.00 82 1004.5
20210920101304 70 146 1.0 8.0 0.00 0.00 0.00 82 1004.6
20210920100804 70 156 0.0 3.0 0.00 0.00 0.00 82 1004.7
20210920100304 70 186 1.0 8.0 0.00 0.00 0.00 82 1004.6
20210920095803 70 202 0.0 5.0 0.00 0.00 0.00 77 1004.7
20210920095306 70 194 2.0 10.0 0.00 0.00 0.00 77 1005.0
20210920094803 71 146 1.0 13.0 0.00 0.00 0.00 77 1005.1
20210920094304 71 193 0.0 9.0 0.00 0.00 0.00 77 1005.2
20210920093804 71 152 1.0 8.0 0.00 0.00 0.00 77 1005.2
20210920093304 71 168 1.0 9.0 0.00 0.00 0.00 77 1005.3
20210920092805 71 178 2.0 9.0 0.00 0.00 0.00 77 1005.2
20210920092306 71 176 1.0 7.0 0.00 0.00 0.00 77 1005.3
20210920091804 71 175 2.0 10.0 0.00 0.00 0.00 77 1005.4
20210920091304 71 179 2.0 10.0 0.00 0.00 0.00 77 1005.4
20210920090804 71 181 1.0 10.0 0.00 0.00 0.00 77 1005.4
20210920090304 71 164 1.0 7.0 0.00 0.00 0.00 77 1005.4
20210920085804 71 172 1.0 9.0 0.00 0.00 0.00 68 1005.4
20210920085305 71 160 1.0 12.0 0.00 0.00 0.00 68 1005.5
20210920084804 71 169 0.0 10.0 0.00 0.00 0.00 68 1005.6
20210920083804 72 213 1.0 8.0 0.00 0.00 0.00 68 1005.7
20210920083304 71 149 1.0 7.0 0.00 0.00 0.00 68 1005.8
20210920082804 72 176 1.0 9.0 0.00 0.00 0.00 68 1005.9
20210920082305 72 177 1.0 7.0 0.00 0.00 0.00 68 1005.8
20210920081804 72 194 1.0 6.0 0.00 0.00 0.00 68 1005.9
20210920081304 72 188 1.0 7.0 0.00 0.00 0.00 68 1006.0
20210920080805 72 191 0.0 3.0 0.00 0.00 0.00 68 1005.9
20210920080304 72 190 0.0 6.0 0.00 0.00 0.00 68 1005.9
20210920075804 72 169 1.0 6.0 0.00 0.00 0.00 68 1005.9
20210920075305 72 175 1.0 7.0 0.00 0.00 0.00 68 1005.8
20210920074804 72 185 1.0 8.0 0.00 0.00 0.00 68 1005.8
20210920074304 72 173 1.0 10.0 0.00 0.00 0.00 68 1005.7
20210920073804 72 183 2.0 12.0 0.00 0.00 0.00 68 1005.8
20210920073304 72 194 2.0 13.0 0.00 0.00 0.00 68 1005.8
20210920072804 73 180 0.0 10.0 0.00 0.00 0.00 68 1005.9
20210920072306 72 172 2.0 9.0 0.00 0.00 0.00 68 1006.0
20210920071804 72 161 1.0 7.0 0.00 0.00 0.00 68 1006.1
20210920071304 72 175 2.0 12.0 0.00 0.00 0.00 68 1006.2
20210920070804 72 164 3.0 14.0 0.00 0.00 0.00 68 1006.2
20210920070304 72 192 1.0 6.0 0.00 0.00 0.00 68 1006.3
20210920065804 72 179 0.0 7.0 0.00 0.00 0.00 68 1006.4